createdAt,value
2023-04-22T00:07:43.521Z,5.47
2023-04-22T00:17:51.272Z,5.11
2023-04-22T00:27:54.415Z,4.88
2023-04-22T00:37:56.762Z,4.81
2023-04-22T00:47:58.766Z,4.84
2023-04-22T00:58:03.010Z,4.57
2023-04-22T01:08:04.960Z,4.62
2023-04-22T01:18:07.432Z,3.97
2023-04-22T01:28:17.596Z,4.43
2023-04-22T01:38:19.485Z,3.86
2023-04-22T01:48:21.498Z,4.11
2023-04-22T01:58:24.393Z,3.74
2023-04-22T02:08:26.409Z,3.79
2023-04-22T02:18:34.595Z,3.82
2023-04-22T02:28:36.575Z,3.28
2023-04-22T02:38:39.019Z,3.45
2023-04-22T02:48:42.877Z,3.38
2023-04-22T02:59:04.308Z,3.18
2023-04-22T03:09:06.397Z,3.07
2023-04-22T03:19:08.277Z,3.11
2023-04-22T03:29:14.241Z,2.97
2023-04-22T03:39:16.182Z,2.65
2023-04-22T03:49:18.043Z,3.19
2023-04-22T03:59:31.937Z,3.66
2023-04-22T04:09:33.940Z,4.27
2023-04-22T04:19:37.305Z,4.90
2023-04-22T04:29:40.003Z,5.89
2023-04-22T04:39:42.659Z,6.58
2023-04-22T04:49:46.063Z,7.63
2023-04-22T04:59:47.937Z,9.23
2023-04-22T05:09:49.958Z,10.00
2023-04-22T05:19:51.898Z,10.03
2023-04-22T05:29:53.947Z,11.50
2023-04-22T05:39:56.167Z,12.29
2023-04-22T05:49:58.213Z,13.07
2023-04-22T06:00:05.577Z,13.04
2023-04-22T06:10:09.667Z,14.43
2023-04-22T06:20:12.501Z,14.36
2023-04-22T06:30:14.686Z,13.86
2023-04-22T06:40:16.683Z,15.07
2023-04-22T06:50:20.247Z,16.04
2023-04-22T07:00:22.299Z,17.15
2023-04-22T07:10:24.800Z,18.27
2023-04-22T07:20:26.714Z,18.08
2023-04-22T07:30:28.678Z,17.94
2023-04-22T07:40:30.654Z,18.48
2023-04-22T07:50:53.979Z,18.31
2023-04-22T08:01:12.508Z,18.06
2023-04-22T08:11:33.685Z,20.02
2023-04-22T08:21:37.471Z,20.13
2023-04-22T08:31:45.457Z,18.92
2023-04-22T08:42:05.908Z,19.63
2023-04-22T08:52:09.676Z,20.76
2023-04-22T09:02:24.496Z,19.97
2023-04-22T09:12:33.424Z,20.53
2023-04-22T09:22:45.363Z,19.81
2023-04-22T09:32:59.368Z,19.66
2023-04-22T09:43:07.843Z,20.54
2023-04-22T09:53:12.072Z,20.29
2023-04-22T10:03:23.172Z,20.74
2023-04-22T10:13:25.286Z,19.99
2023-04-22T10:23:33.676Z,20.09
2023-04-22T10:33:43.817Z,19.06
2023-04-22T10:43:58.740Z,19.50
2023-04-22T10:54:03.002Z,19.42
2023-04-22T11:04:37.531Z,18.86
2023-04-22T11:14:41.083Z,19.35
2023-04-22T11:24:57.095Z,18.84
2023-04-22T11:34:59.153Z,19.14
2023-04-22T11:45:01.125Z,18.83
2023-04-22T11:55:03.144Z,18.85
2023-04-22T12:05:10.653Z,18.41
2023-04-22T12:15:16.179Z,18.33
2023-04-22T12:25:20.945Z,18.11
2023-04-22T12:35:24.015Z,18.48
2023-04-22T12:45:31.945Z,18.84
2023-04-22T12:55:35.971Z,18.72
2023-04-22T13:05:46.881Z,19.08
2023-04-22T13:15:54.156Z,18.86
2023-04-22T13:26:02.600Z,19.12
2023-04-22T13:36:20.796Z,18.67
2023-04-22T13:46:25.096Z,19.07
2023-04-22T13:56:28.411Z,18.75
2023-04-22T14:06:30.636Z,18.63
2023-04-22T14:16:32.690Z,19.09
2023-04-22T14:26:34.685Z,18.90
2023-04-22T14:36:36.874Z,18.59
2023-04-22T14:46:38.810Z,18.67
2023-04-22T14:56:40.871Z,18.82
2023-04-22T15:06:43.090Z,18.69
2023-04-22T15:16:45.159Z,18.63
2023-04-22T15:26:48.197Z,18.58
2023-04-22T15:36:50.272Z,18.30
2023-04-22T15:46:53.306Z,18.33
2023-04-22T15:56:55.319Z,18.10
2023-04-22T16:06:59.533Z,18.29
2023-04-22T16:17:02.947Z,17.99
2023-04-22T16:27:04.999Z,17.93
2023-04-22T16:37:07.106Z,17.74
2023-04-22T16:47:09.109Z,17.58
2023-04-22T16:57:11.891Z,17.33
2023-04-22T17:07:14.884Z,17.03
2023-04-22T17:17:16.845Z,16.75
2023-04-22T17:27:18.844Z,16.16
2023-04-22T17:37:20.913Z,15.66
2023-04-22T17:47:22.976Z,14.65
2023-04-22T17:57:26.155Z,14.13
2023-04-22T18:07:28.260Z,13.56
2023-04-22T18:17:30.370Z,13.25
2023-04-22T18:27:32.335Z,12.50
2023-04-22T18:37:35.675Z,12.11
2023-04-22T18:47:37.819Z,11.61
2023-04-22T18:57:43.714Z,11.12
2023-04-22T19:07:46.211Z,11.22
2023-04-22T19:17:49.595Z,11.19
2023-04-22T19:27:51.910Z,10.36
2023-04-22T19:37:55.406Z,10.32
2023-04-22T19:47:59.343Z,10.30
2023-04-22T19:58:01.964Z,9.78
2023-04-22T20:08:04.120Z,9.52
2023-04-22T20:18:09.579Z,9.48
2023-04-22T20:28:12.266Z,9.37
2023-04-22T20:38:16.483Z,9.63
2023-04-22T20:48:18.533Z,8.96
2023-04-22T20:58:20.548Z,9.01
2023-04-22T21:08:24.930Z,8.85
2023-04-22T21:18:29.331Z,8.51
2023-04-22T21:28:31.665Z,8.50
2023-04-22T21:38:34.634Z,8.78
2023-04-22T21:48:36.431Z,8.24
2023-04-22T21:58:38.497Z,7.89
2023-04-22T22:08:42.725Z,7.72
2023-04-22T22:18:48.879Z,7.74
2023-04-22T22:28:53.233Z,7.52
2023-04-22T22:38:59.268Z,7.62
2023-04-22T22:49:06.590Z,7.37
2023-04-22T22:59:15.449Z,7.84
2023-04-22T23:09:19.324Z,7.11
2023-04-22T23:19:21.386Z,7.65
2023-04-22T23:29:29.648Z,7.82
2023-04-22T23:39:31.695Z,7.74
2023-04-22T23:49:33.675Z,7.83
2023-04-22T23:59:35.964Z,7.99
